createdAt,value
2018-11-06T00:01:11.009Z,56.50
2018-11-06T00:03:45.194Z,63.07
2018-11-06T00:06:20.252Z,40.70
2018-11-06T00:08:49.252Z,45.87
2018-11-06T00:11:18.183Z,53.33
2018-11-06T00:13:47.078Z,44.87
2018-11-06T00:16:15.855Z,48.13
2018-11-06T00:18:44.775Z,49.83
2018-11-06T00:21:13.651Z,48.13
2018-11-06T00:23:42.646Z,54.90
2018-11-06T00:26:11.500Z,47.73
2018-11-06T00:28:41.336Z,49.60
2018-11-06T00:31:10.683Z,48.03
2018-11-06T00:33:39.616Z,44.97
2018-11-06T00:36:08.643Z,47.93
2018-11-06T00:38:38.372Z,47.27
2018-11-06T00:41:07.408Z,44.13
2018-11-06T00:43:36.451Z,44.90
2018-11-06T00:46:05.513Z,39.50
2018-11-06T00:48:48.771Z,38.90
2018-11-06T00:51:17.610Z,44.83
2018-11-06T00:53:46.471Z,40.90
2018-11-06T00:56:15.383Z,40.67
2018-11-06T00:58:44.233Z,41.60
2018-11-06T01:01:12.954Z,39.70
2018-11-06T01:03:50.429Z,44.33
2018-11-06T01:06:19.953Z,49.30
2018-11-06T01:08:48.753Z,49.60
2018-11-06T01:11:17.557Z,49.00
2018-11-06T01:13:46.352Z,48.40
2018-11-06T01:16:15.120Z,51.50
2018-11-06T01:18:44.038Z,48.77
2018-11-06T01:21:12.884Z,48.47
2018-11-06T01:23:41.657Z,47.93
2018-11-06T01:26:10.767Z,50.70
2018-11-06T01:28:39.502Z,48.93
2018-11-06T01:31:08.281Z,52.77
2018-11-06T01:33:36.975Z,52.57
2018-11-06T01:36:06.830Z,56.53
2018-11-06T01:38:39.853Z,54.03
2018-11-06T01:41:08.557Z,58.47
2018-11-06T01:43:37.469Z,55.33
2018-11-06T01:46:06.448Z,56.43
2018-11-06T01:48:36.110Z,55.23
2018-11-06T01:51:05.060Z,53.33
2018-11-06T01:53:33.954Z,53.37
2018-11-06T01:56:02.887Z,51.67
2018-11-06T01:58:31.800Z,50.67
2018-11-06T02:01:00.664Z,51.00
2018-11-06T02:03:29.555Z,53.20
2018-11-06T02:05:58.597Z,50.47
2018-11-06T02:08:27.771Z,52.57
2018-11-06T02:10:56.833Z,53.73
2018-11-06T02:13:25.772Z,52.87
2018-11-06T02:15:54.618Z,48.50
2018-11-06T02:18:24.316Z,50.90
2018-11-06T02:20:53.032Z,49.80
2018-11-06T02:23:21.772Z,49.83
2018-11-06T02:25:50.546Z,50.13
2018-11-06T02:28:20.036Z,51.57
2018-11-06T02:30:48.966Z,50.47
2018-11-06T02:33:18.002Z,47.83
2018-11-06T02:35:50.436Z,47.23
2018-11-06T02:38:19.952Z,47.17
2018-11-06T02:40:48.749Z,47.13
2018-11-06T02:43:17.673Z,44.70
2018-11-06T02:45:46.606Z,43.87
2018-11-06T02:48:16.117Z,46.20
2018-11-06T02:50:44.929Z,43.27
2018-11-06T02:53:13.973Z,45.53
2018-11-06T02:55:42.864Z,45.87
2018-11-06T02:58:12.727Z,45.27
2018-11-06T03:00:41.494Z,46.17
2018-11-06T03:03:10.323Z,46.43
2018-11-06T03:05:39.878Z,44.20
2018-11-06T03:08:12.964Z,46.50
2018-11-06T03:10:41.755Z,45.93
2018-11-06T03:13:11.206Z,47.77
2018-11-06T03:15:39.901Z,46.00
2018-11-06T03:18:08.698Z,46.60
2018-11-06T03:20:37.369Z,46.87
2018-11-06T03:23:06.233Z,45.90
2018-11-06T03:25:35.051Z,45.83
2018-11-06T03:28:03.891Z,43.90
2018-11-06T03:30:32.627Z,42.83
2018-11-06T03:33:01.384Z,44.00
2018-11-06T03:35:30.254Z,43.83
2018-11-06T03:37:59.254Z,44.33
2018-11-06T03:40:28.093Z,44.57
2018-11-06T03:42:57.033Z,42.93
2018-11-06T03:45:26.710Z,44.60
2018-11-06T03:47:55.616Z,43.30
2018-11-06T03:50:24.428Z,45.13
2018-11-06T03:52:53.209Z,44.60
2018-11-06T03:55:22.032Z,45.43
2018-11-06T03:57:50.950Z,46.70
2018-11-06T04:00:19.833Z,44.27
2018-11-06T04:02:48.632Z,45.63
2018-11-06T04:05:17.562Z,43.73
2018-11-06T04:07:47.265Z,44.83
2018-11-06T04:10:16.156Z,47.83
2018-11-06T04:12:45.128Z,46.97
2018-11-06T04:15:14.705Z,47.07
2018-11-06T04:17:44.435Z,50.00
2018-11-06T04:20:13.405Z,46.30
2018-11-06T04:22:42.593Z,47.23
2018-11-06T04:25:12.011Z,46.90
2018-11-06T04:27:40.647Z,47.13
2018-11-06T04:30:13.322Z,46.13
2018-11-06T04:32:42.881Z,44.50
2018-11-06T04:35:12.376Z,45.13
2018-11-06T04:37:41.861Z,47.73
2018-11-06T04:40:14.749Z,46.87
2018-11-06T04:42:43.856Z,46.50
2018-11-06T04:45:13.307Z,44.73
2018-11-06T04:47:47.356Z,45.43
2018-11-06T04:50:16.106Z,46.13
2018-11-06T04:52:45.133Z,46.13
2018-11-06T04:55:14.081Z,45.63
2018-11-06T04:57:43.385Z,45.60
2018-11-06T05:00:14.197Z,43.90
2018-11-06T05:02:43.252Z,43.83
2018-11-06T05:05:12.374Z,41.60
2018-11-06T05:07:41.439Z,41.20
2018-11-06T05:10:11.863Z,42.70
2018-11-06T05:12:40.562Z,43.20
2018-11-06T05:15:10.952Z,42.90
2018-11-06T05:17:39.734Z,43.13
2018-11-06T05:20:11.705Z,40.47
2018-11-06T05:22:40.528Z,41.87
2018-11-06T05:25:09.776Z,41.93
2018-11-06T05:27:38.735Z,41.47
2018-11-06T05:30:08.314Z,41.80
2018-11-06T05:32:37.181Z,39.90
2018-11-06T05:35:07.307Z,40.67
2018-11-06T05:37:36.223Z,38.80
2018-11-06T05:40:15.829Z,38.33
2018-11-06T05:42:44.546Z,39.40
2018-11-06T05:45:13.230Z,37.50
2018-11-06T05:47:42.094Z,40.33
2018-11-06T05:50:10.793Z,37.60
2018-11-06T05:52:39.594Z,290.30
2018-11-06T05:58:41.012Z,37.53
2018-11-06T06:01:10.307Z,36.33
2018-11-06T06:06:38.650Z,37.43
2018-11-06T06:09:08.290Z,35.17
2018-11-06T06:11:37.178Z,37.70
2018-11-06T06:14:06.210Z,37.27
2018-11-06T06:16:35.036Z,36.57
2018-11-06T06:19:03.818Z,35.40
2018-11-06T06:21:36.660Z,36.53
2018-11-06T06:24:06.179Z,37.13
2018-11-06T06:26:35.850Z,36.60
2018-11-06T06:29:05.109Z,35.63
2018-11-06T06:31:33.967Z,36.53
2018-11-06T06:34:05.017Z,35.90
2018-11-06T06:36:33.910Z,35.47
2018-11-06T06:39:02.743Z,34.50
2018-11-06T06:41:32.146Z,36.30
2018-11-06T06:44:00.907Z,34.23
2018-11-06T06:46:29.840Z,35.97
2018-11-06T06:48:58.938Z,35.20
2018-11-06T06:51:27.960Z,34.00
2018-11-06T06:53:56.692Z,33.90
2018-11-06T06:56:25.568Z,32.90
2018-11-06T06:58:55.789Z,32.67
2018-11-06T07:01:24.557Z,33.83
2018-11-06T07:03:53.605Z,34.07
2018-11-06T07:06:22.425Z,31.17
2018-11-06T07:08:51.217Z,32.43
2018-11-06T07:11:20.125Z,31.90
2018-11-06T07:13:48.859Z,31.87
2018-11-06T07:16:18.406Z,30.60
2018-11-06T07:18:47.317Z,30.53
2018-11-06T07:21:16.780Z,28.67
2018-11-06T07:23:45.609Z,31.23
2018-11-06T07:26:14.332Z,32.17
2018-11-06T07:28:43.413Z,29.87
2018-11-06T07:31:12.294Z,28.73
2018-11-06T07:33:41.791Z,29.07
2018-11-06T07:36:10.637Z,28.43
2018-11-06T07:38:39.631Z,29.50
2018-11-06T07:41:08.611Z,28.37
2018-11-06T07:43:38.112Z,27.90
2018-11-06T07:46:07.042Z,28.50
2018-11-06T07:48:35.952Z,28.20
2018-11-06T07:51:04.856Z,27.43
2018-11-06T07:53:34.924Z,28.13
2018-11-06T07:56:03.797Z,27.53
2018-11-06T07:58:33.231Z,30.47
2018-11-06T08:01:02.208Z,26.97
2018-11-06T08:03:32.137Z,28.03
2018-11-06T08:06:00.977Z,27.70
2018-11-06T08:08:29.811Z,27.97
2018-11-06T08:10:58.674Z,29.90
2018-11-06T08:13:27.551Z,27.93
2018-11-06T08:15:57.058Z,26.90
2018-11-06T08:18:25.898Z,28.90
2018-11-06T08:20:54.891Z,29.77
2018-11-06T08:23:23.754Z,28.57
2018-11-06T08:25:52.694Z,28.50
2018-11-06T08:28:21.555Z,29.10
2018-11-06T08:30:51.534Z,25.73
2018-11-06T08:33:20.099Z,26.10
2018-11-06T08:35:48.871Z,27.20
2018-11-06T08:38:18.355Z,26.80
2018-11-06T08:40:47.115Z,26.83
2018-11-06T08:43:15.834Z,27.00
2018-11-06T08:45:44.826Z,27.70
2018-11-06T08:48:13.670Z,25.83
2018-11-06T08:50:43.105Z,28.33
2018-11-06T08:53:11.911Z,24.37
2018-11-06T08:55:40.725Z,23.87
2018-11-06T08:58:09.430Z,25.33
2018-11-06T09:00:38.282Z,24.00
2018-11-06T09:03:07.150Z,23.30
2018-11-06T09:05:35.841Z,22.20
2018-11-06T09:08:04.638Z,22.43
2018-11-06T09:10:33.470Z,23.00
2018-11-06T09:13:02.290Z,23.90
2018-11-06T09:15:31.100Z,22.93
2018-11-06T09:17:59.927Z,22.77
2018-11-06T09:20:28.711Z,24.83
2018-11-06T09:22:57.516Z,23.07
2018-11-06T09:25:26.360Z,22.37
2018-11-06T09:27:55.830Z,22.73
2018-11-06T09:30:24.600Z,21.77
2018-11-06T09:32:53.403Z,20.97
2018-11-06T09:35:22.201Z,22.43
2018-11-06T09:37:51.012Z,21.80
2018-11-06T09:40:21.464Z,20.80
2018-11-06T09:42:50.452Z,20.90
2018-11-06T09:45:19.292Z,20.97
2018-11-06T09:47:48.317Z,20.97
2018-11-06T09:50:18.507Z,20.43
2018-11-06T09:52:47.837Z,21.17
2018-11-06T09:55:17.396Z,20.90
2018-11-06T09:57:47.595Z,19.33
2018-11-06T10:00:18.821Z,21.10
2018-11-06T10:02:47.726Z,20.83
2018-11-06T10:05:17.075Z,21.13
2018-11-06T10:07:45.889Z,21.27
2018-11-06T10:10:16.220Z,21.77
2018-11-06T10:12:45.485Z,21.63
2018-11-06T10:15:17.051Z,21.30
2018-11-06T10:17:47.029Z,21.97
2018-11-06T10:20:17.794Z,22.60
2018-11-06T10:22:46.720Z,23.00
2018-11-06T10:25:15.584Z,22.97
2018-11-06T10:27:44.511Z,22.77
2018-11-06T10:30:15.624Z,23.33
2018-11-06T10:32:44.465Z,21.80
2018-11-06T10:35:13.265Z,21.83
2018-11-06T10:37:42.155Z,23.90
2018-11-06T10:40:14.442Z,23.20
2018-11-06T10:42:43.944Z,22.63
2018-11-06T10:45:12.984Z,22.27
2018-11-06T10:47:41.785Z,22.43
2018-11-06T10:50:12.627Z,23.20
2018-11-06T10:52:41.766Z,21.00
2018-11-06T10:55:10.918Z,21.73
2018-11-06T10:57:40.488Z,22.03
2018-11-06T11:00:16.226Z,21.20
2018-11-06T11:02:50.365Z,21.23
2018-11-06T11:05:19.973Z,21.33
2018-11-06T11:07:48.789Z,20.90
2018-11-06T11:10:18.208Z,21.30
2018-11-06T11:12:47.191Z,20.57
2018-11-06T11:15:16.873Z,20.40
2018-11-06T11:17:48.242Z,20.20
2018-11-06T11:20:17.852Z,19.20
2018-11-06T11:22:49.084Z,20.57
2018-11-06T11:25:17.998Z,18.43
2018-11-06T11:27:47.414Z,19.13
2018-11-06T11:30:17.123Z,19.83
2018-11-06T11:32:48.007Z,18.97
2018-11-06T11:35:17.719Z,33.33
2018-11-06T11:37:46.739Z,19.40
2018-11-06T11:40:16.221Z,19.80
2018-11-06T11:42:49.085Z,20.43
2018-11-06T11:45:18.129Z,20.27
2018-11-06T11:47:48.012Z,19.50
2018-11-06T11:50:17.230Z,18.23
2018-11-06T11:52:46.870Z,18.27
2018-11-06T11:55:16.988Z,19.57
2018-11-06T11:57:46.723Z,28.17
2018-11-06T12:00:17.316Z,20.00
2018-11-06T12:02:46.195Z,18.83
2018-11-06T12:05:15.211Z,18.30
2018-11-06T12:07:44.225Z,18.00
2018-11-06T12:10:14.149Z,18.33
2018-11-06T12:12:43.206Z,18.20
2018-11-06T12:15:14.875Z,17.70
2018-11-06T12:17:44.503Z,18.50
2018-11-06T12:20:14.012Z,18.07
2018-11-06T12:22:43.847Z,19.37
2018-11-06T12:25:13.358Z,21.30
2018-11-06T12:27:43.377Z,18.93
2018-11-06T12:30:14.584Z,18.90
2018-11-06T12:32:44.659Z,18.77
2018-11-06T12:35:14.435Z,19.37
2018-11-06T12:37:44.747Z,18.50
2018-11-06T12:40:14.378Z,18.67
2018-11-06T12:43:14.154Z,18.67
2018-11-06T12:45:43.471Z,17.90
2018-11-06T12:48:13.379Z,17.93
2018-11-06T12:50:42.604Z,17.67
2018-11-06T12:53:13.697Z,18.40
2018-11-06T12:55:42.484Z,17.40
2018-11-06T12:58:11.361Z,16.97
2018-11-06T13:00:41.104Z,17.97
2018-11-06T13:03:10.135Z,17.13
2018-11-06T13:05:39.937Z,56.73
2018-11-06T13:08:09.931Z,19.10
2018-11-06T13:10:38.950Z,16.77
2018-11-06T13:13:08.946Z,15.37
2018-11-06T13:15:39.479Z,15.63
2018-11-06T13:18:08.605Z,18.10
2018-11-06T13:20:37.679Z,16.23
2018-11-06T13:23:06.663Z,17.60
2018-11-06T13:25:35.752Z,17.37
2018-11-06T13:28:05.879Z,15.37
2018-11-06T13:30:35.009Z,15.93
2018-11-06T13:33:04.121Z,15.53
2018-11-06T13:35:33.201Z,14.67
2018-11-06T13:38:03.810Z,14.70
2018-11-06T13:40:35.647Z,14.70
2018-11-06T13:43:04.578Z,13.93
2018-11-06T13:45:33.713Z,14.60
2018-11-06T13:48:03.459Z,13.67
2018-11-06T13:50:32.977Z,12.87
2018-11-06T13:53:01.956Z,12.83
2018-11-06T13:55:30.820Z,12.33
2018-11-06T13:57:59.732Z,13.17
2018-11-06T14:00:29.794Z,12.37
2018-11-06T14:03:07.569Z,12.20
2018-11-06T14:05:36.626Z,11.27
2018-11-06T14:08:05.383Z,11.40
2018-11-06T14:10:35.867Z,10.93
2018-11-06T14:15:51.758Z,10.63
2018-11-06T14:18:21.261Z,9.90
2018-11-06T14:20:50.175Z,9.40
2018-11-06T14:23:19.102Z,10.13
2018-11-06T14:25:48.536Z,9.50
2018-11-06T14:28:17.690Z,9.27
2018-11-06T14:30:46.456Z,8.57
2018-11-06T14:33:16.658Z,9.13
2018-11-06T14:35:46.440Z,8.90
2018-11-06T14:38:15.994Z,9.73
2018-11-06T14:40:46.028Z,9.10
2018-11-06T14:43:16.907Z,9.70
2018-11-06T14:45:46.581Z,10.20
2018-11-06T14:48:15.445Z,9.33
2018-11-06T14:50:44.195Z,8.40
2018-11-06T14:53:13.007Z,8.73
2018-11-06T14:55:41.827Z,9.00
2018-11-06T14:58:10.659Z,9.20
2018-11-06T15:00:39.484Z,8.97
2018-11-06T15:03:09.617Z,8.87
2018-11-06T15:05:38.879Z,7.90
2018-11-06T15:08:07.964Z,8.40
2018-11-06T15:10:36.671Z,7.07
2018-11-06T15:13:05.675Z,7.27
2018-11-06T15:15:34.482Z,7.13
2018-11-06T15:18:03.216Z,6.07
2018-11-06T15:20:32.085Z,5.63
2018-11-06T15:23:00.893Z,5.77
2018-11-06T15:25:29.660Z,4.97
2018-11-06T15:27:58.422Z,5.30
2018-11-06T15:30:27.239Z,4.53
2018-11-06T15:32:57.037Z,5.07
2018-11-06T15:35:43.259Z,4.43
2018-11-06T15:38:12.995Z,4.30
2018-11-06T15:45:02.753Z,5.60
2018-11-06T15:47:31.741Z,5.80
2018-11-06T15:50:00.948Z,4.70
2018-11-06T15:52:29.830Z,5.10
2018-11-06T15:54:58.943Z,4.83
2018-11-06T15:57:28.068Z,4.80
2018-11-06T15:59:57.140Z,4.67
2018-11-06T16:02:26.126Z,5.97
2018-11-06T16:04:54.895Z,5.63
2018-11-06T16:07:24.135Z,6.23
2018-11-06T16:09:53.996Z,6.67
2018-11-06T16:12:23.997Z,6.27
2018-11-06T16:14:53.031Z,5.93
2018-11-06T16:17:22.129Z,6.07
2018-11-06T16:19:51.477Z,5.47
2018-11-06T16:22:21.850Z,6.40
2018-11-06T16:24:52.349Z,5.70
2018-11-06T16:27:22.211Z,5.30
2018-11-06T16:29:52.997Z,6.50
2018-11-06T16:32:25.764Z,5.37
2018-11-06T16:34:54.843Z,5.73
2018-11-06T16:37:24.003Z,5.30
2018-11-06T16:39:55.995Z,5.90
2018-11-06T16:45:25.879Z,5.77
2018-11-06T16:47:54.875Z,6.00
2018-11-06T16:50:24.542Z,6.10
2018-11-06T16:52:53.373Z,5.83
2018-11-06T16:55:22.171Z,5.07
2018-11-06T16:57:51.013Z,5.57
2018-11-06T17:00:21.877Z,6.03
2018-11-06T17:02:50.634Z,5.77
2018-11-06T17:05:19.329Z,6.03
2018-11-06T17:07:48.496Z,6.37
2018-11-06T17:10:17.694Z,6.33
2018-11-06T17:12:46.437Z,6.77
2018-11-06T17:15:16.847Z,6.97
2018-11-06T17:17:47.282Z,7.60
2018-11-06T17:20:17.238Z,8.27
2018-11-06T17:22:46.051Z,9.73
2018-11-06T17:25:16.919Z,9.20
2018-11-06T17:27:45.779Z,10.60
2018-11-06T17:30:15.843Z,10.50
2018-11-06T17:32:44.934Z,10.83
2018-11-06T17:35:16.129Z,10.33
2018-11-06T17:37:45.029Z,11.83
2018-11-06T17:40:15.093Z,10.73
2018-11-06T17:42:44.162Z,11.43
2018-11-06T17:45:18.844Z,12.73
2018-11-06T17:47:48.307Z,12.63
2018-11-06T17:50:17.575Z,13.93
2018-11-06T17:52:47.235Z,26.90
2018-11-06T17:55:17.487Z,15.77
2018-11-06T17:57:46.304Z,12.10
2018-11-06T18:00:18.818Z,12.30
2018-11-06T18:02:47.965Z,11.87
2018-11-06T18:05:17.759Z,11.40
2018-11-06T18:07:47.099Z,11.00
2018-11-06T18:10:30.453Z,11.50
2018-11-06T18:12:59.243Z,11.20
2018-11-06T18:15:28.491Z,11.27
2018-11-06T18:17:58.036Z,11.37
2018-11-06T18:20:26.936Z,15.23
2018-11-06T18:22:55.773Z,15.40
2018-11-06T18:25:24.958Z,18.60
2018-11-06T18:27:53.789Z,16.37
2018-11-06T18:30:23.600Z,13.80
2018-11-06T18:32:52.543Z,13.80
2018-11-06T18:35:21.935Z,17.67
2018-11-06T18:37:50.688Z,16.30
2018-11-06T18:40:20.265Z,12.80
2018-11-06T18:42:50.174Z,15.53
2018-11-06T18:45:19.199Z,12.30
2018-11-06T18:47:48.770Z,13.03
2018-11-06T18:50:19.481Z,16.60
2018-11-06T18:52:50.377Z,20.30
2018-11-06T18:55:21.129Z,22.17
2018-11-06T18:57:50.714Z,14.10
2018-11-06T19:00:21.577Z,13.00
2018-11-06T19:02:51.707Z,10.93
2018-11-06T19:05:24.378Z,12.10
2018-11-06T19:07:54.603Z,11.70
2018-11-06T19:10:23.644Z,11.60
2018-11-06T19:12:52.737Z,12.47
2018-11-06T19:15:24.169Z,11.73
2018-11-06T19:17:54.091Z,12.83
2018-11-06T19:20:24.308Z,12.77
2018-11-06T19:22:54.913Z,15.97
2018-11-06T19:25:23.795Z,14.83
2018-11-06T19:27:52.924Z,11.77
2018-11-06T19:30:21.940Z,14.98
2018-11-06T19:32:50.780Z,13.27
2018-11-06T19:35:20.761Z,12.63
2018-11-06T19:37:49.784Z,13.67
2018-11-06T19:40:19.259Z,13.83
2018-11-06T19:42:50.039Z,13.13
2018-11-06T19:45:19.017Z,13.07
2018-11-06T19:47:48.821Z,13.03
2018-11-06T19:50:19.132Z,12.87
2018-11-06T19:52:49.188Z,12.97
2018-11-06T19:55:20.213Z,13.00
2018-11-06T19:57:50.246Z,12.77
2018-11-06T20:00:20.798Z,13.47
2018-11-06T20:03:04.715Z,13.00
2018-11-06T20:05:34.484Z,13.30
2018-11-06T20:08:04.580Z,12.40
2018-11-06T20:10:34.224Z,13.33
2018-11-06T20:13:03.172Z,13.67
2018-11-06T20:15:32.260Z,13.80
2018-11-06T20:18:01.259Z,15.87
2018-11-06T20:20:30.129Z,17.43
2018-11-06T20:22:59.114Z,18.27
2018-11-06T20:25:28.008Z,17.17
2018-11-06T20:27:57.671Z,15.70
2018-11-06T20:30:27.355Z,16.30
2018-11-06T20:32:56.358Z,15.27
2018-11-06T20:35:26.499Z,14.97
2018-11-06T20:37:55.609Z,15.53
2018-11-06T20:40:25.763Z,14.20
2018-11-06T20:42:54.835Z,14.83
2018-11-06T20:45:24.177Z,14.93
2018-11-06T20:47:54.502Z,14.90
2018-11-06T20:50:24.834Z,14.20
2018-11-06T20:52:54.940Z,14.33
2018-11-06T20:55:23.996Z,16.07
2018-11-06T20:57:52.898Z,19.03
2018-11-06T21:00:30.129Z,19.23
2018-11-06T21:03:01.548Z,19.40
2018-11-06T21:05:30.553Z,18.50
2018-11-06T21:08:00.525Z,21.37
2018-11-06T21:10:30.991Z,15.67
2018-11-06T21:13:00.774Z,16.00
2018-11-06T21:15:31.993Z,16.73
2018-11-06T21:18:01.006Z,16.37
2018-11-06T21:20:30.733Z,15.67
2018-11-06T21:22:59.950Z,15.43
2018-11-06T21:25:29.317Z,15.63
2018-11-06T21:27:59.143Z,17.40
2018-11-06T21:30:29.373Z,15.97
2018-11-06T21:32:58.299Z,17.00
2018-11-06T21:35:27.184Z,16.90
2018-11-06T21:37:56.110Z,15.93
2018-11-06T21:40:25.032Z,17.17
2018-11-06T21:42:55.144Z,16.60
2018-11-06T21:45:26.152Z,16.20
2018-11-06T21:47:55.462Z,15.97
2018-11-06T21:50:26.505Z,16.53
2018-11-06T21:52:55.422Z,15.43
2018-11-06T21:55:24.539Z,16.20
2018-11-06T21:57:53.563Z,17.13
2018-11-06T22:00:23.440Z,16.87
2018-11-06T22:02:52.328Z,17.00
2018-11-06T22:05:21.831Z,16.17
2018-11-06T22:07:51.229Z,16.43
2018-11-06T22:10:21.281Z,16.90
2018-11-06T22:12:50.324Z,17.20
2018-11-06T22:15:19.947Z,17.90
2018-11-06T22:17:49.563Z,17.93
2018-11-06T22:20:20.191Z,17.17
2018-11-06T22:22:49.490Z,17.03
2018-11-06T22:25:19.044Z,15.83
2018-11-06T22:27:48.605Z,16.33
2018-11-06T22:30:17.946Z,18.40
2018-11-06T22:32:47.164Z,19.33
2018-11-06T22:35:17.036Z,18.60
2018-11-06T22:37:45.941Z,17.37
2018-11-06T22:40:16.105Z,17.53
2018-11-06T22:42:45.026Z,16.73
2018-11-06T22:45:15.754Z,17.23
2018-11-06T22:47:46.179Z,18.67
2018-11-06T22:50:16.613Z,18.50
2018-11-06T22:52:46.299Z,17.47
2018-11-06T22:55:15.340Z,18.80
2018-11-06T22:57:45.716Z,18.17
2018-11-06T23:00:17.712Z,17.63
2018-11-06T23:02:50.662Z,17.13
2018-11-06T23:05:21.445Z,17.10
2018-11-06T23:07:56.468Z,17.87
2018-11-06T23:10:25.384Z,17.43
2018-11-06T23:12:54.425Z,17.93
2018-11-06T23:15:25.094Z,17.80
2018-11-06T23:17:54.715Z,16.43
2018-11-06T23:20:23.689Z,17.93
2018-11-06T23:22:53.057Z,17.83
2018-11-06T23:25:22.048Z,17.17
2018-11-06T23:27:51.396Z,17.47
2018-11-06T23:30:20.718Z,17.03
2018-11-06T23:32:54.865Z,16.83
2018-11-06T23:35:24.588Z,17.93
2018-11-06T23:37:55.144Z,17.43
2018-11-06T23:40:24.030Z,17.53
2018-11-06T23:42:52.906Z,17.27
2018-11-06T23:45:21.773Z,17.63
2018-11-06T23:47:50.690Z,17.10
2018-11-06T23:50:23.670Z,18.00
2018-11-06T23:52:52.404Z,16.73
2018-11-06T23:55:21.272Z,17.40
2018-11-06T23:57:50.755Z,17.97
